Blountstown, Florida
Current Conditions -  °F | °C
As of 10:53 AM on Sunday 23 Nov 2014 (Local Time) from KMAI Reporting Station
Overcast Overcast  
Wind Chill: 75°   Ceiling: 1600
Heat Index: 75°   Visibility: 10mi
Dew Point: 73°   Wind: 15mph
Humidity: 94%   Direction: 180°S
Pressure: 29.81"   Gusts: 23mph
Location:  30.44°N, 85.05°W
Report Text: KMAI 231653Z AUTO 18013G20KT 10SM FEW011 BKN016 OVC023 24/23 A2981 RMK AO2 SLP091 T02390228 $
Loading
Personal Weather Stations






























Interactive Weather Map New forecast layout! Learn more

10-Day Weather Forecast

Advertisements
Track Severe Weather on mobile